Crescent Mills, CA (95934)

1:33 PM PDT on September 04, 2015 (GMT -0700)
Mt. Hough Estates | | Change Station
CLOSE
Current Station
Personal Weather Station
Location: Greenville, CA
Elevation: 3550 ft
Nearby Weather Stations

Elev 3550 ft 40.12 °N, 120.90 °W | Updated 59 seconds ago

Clear
Clear
66.6 °F
Feels Like 66.6 °F
N
7.0
Wind Variable Wind from ESE
Gusts 13.0 mph

Today
High -- | Low -- °F
--% Chance of Precip.
Yesterday
High -- | Low -- °F
Precip. -- in
6:33 AM 7:30 PM
Waning Gibbous, 56% visible
Pressure 29.79 in
Visibility 10.0 miles
Clouds Clear
Dew Point 30 °F
Humidity 25%
Rainfall 0.00 in
Snow Depth Not available.
UV 10 out of 12
Pollen 8.30 out of 12
Air Quality Not available.
Flu Activity Not available.
METAR KBLU 041952Z AUTO 19017G26KT 10SM CLR 16/M01 A2997 RMK AO2 PK WND 18028/1924 SLP088 T01561011
Pressure 29.79 in
Visibility 10.0 miles
Clouds Clear
Dew Point 30 °F
Humidity 25%
Rainfall 0.00 in
Snow Depth Not available.
UV 10 out of 12
Pollen 8.30 out of 12
Air Quality Not available.
Flu Activity Not available.
METAR KBLU 041952Z AUTO 19017G26KT 10SM CLR 16/M01 A2997 RMK AO2 PK WND 18028/1924 SLP088 T01561011

10-Day Weather Forecast

×

Almanac

Astronomy

Sep. 04, 2015 Rise Set
Actual Time
Civil Twilight
Nautical Twilight
Astronomical Twilight
Moon
Length of Visible Light
Length of Day
Tomorrow will be .
, % of the Moon is Illuminated

Today's Extremes

State Highs State Lows

Community

WunderPhotos

Upload Photos

1,852,283 photos uploaded!

WunderBlogs® & News

Nearby

Air Quality

  Air Quality AQ Index Pollutant
Not available.

Snow Depth

Station Depth Elevation

Earthquake Activity

City Distance Mag. Time & Date
Minimum magnitude displayed is 2.5.

Coastal Water Temperatures

Place Temperature

Stations

Nearby Weather Stations

Station Location Temp. Windchill Dew Point Humidity Wind Precip. Elev Updated Type